sensor_id;sensor_type;location;lat;lon;timestamp;P1;durP1;ratioP1;P2;durP2;ratioP2
80272;SDS011;69574;45.328;9.598;2023-06-14T00:02:09;24.85;;;21.80;;
80272;SDS011;69574;45.328;9.598;2023-06-14T00:04:35;26.13;;;22.60;;
80272;SDS011;69574;45.328;9.598;2023-06-14T00:07:03;22.42;;;20.02;;
80272;SDS011;69574;45.328;9.598;2023-06-14T00:09:28;26.27;;;22.63;;
80272;SDS011;69574;45.328;9.598;2023-06-14T00:11:54;25.48;;;22.13;;
80272;SDS011;69574;45.328;9.598;2023-06-14T00:14:20;25.50;;;22.77;;
80272;SDS011;69574;45.328;9.598;2023-06-14T00:16:47;22.98;;;20.42;;
80272;SDS011;69574;45.328;9.598;2023-06-14T00:19:13;24.98;;;21.08;;
80272;SDS011;69574;45.328;9.598;2023-06-14T00:21:39;24.15;;;20.50;;
80272;SDS011;69574;45.328;9.598;2023-06-14T00:24:05;22.83;;;20.30;;
80272;SDS011;69574;45.328;9.598;2023-06-14T00:26:30;23.85;;;20.92;;
80272;SDS011;69574;45.328;9.598;2023-06-14T00:28:56;22.75;;;19.70;;
80272;SDS011;69574;45.328;9.598;2023-06-14T00:31:22;23.45;;;20.08;;
80272;SDS011;69574;45.328;9.598;2023-06-14T00:33:49;19.33;;;17.20;;
80272;SDS011;69574;45.328;9.598;2023-06-14T00:36:15;23.73;;;19.30;;
80272;SDS011;69574;45.328;9.598;2023-06-14T00:38:41;21.45;;;19.15;;
80272;SDS011;69574;45.328;9.598;2023-06-14T00:41:07;23.52;;;18.48;;
80272;SDS011;69574;45.328;9.598;2023-06-14T00:43:32;21.10;;;18.55;;
80272;SDS011;69574;45.328;9.598;2023-06-14T00:46:00;19.92;;;17.77;;
80272;SDS011;69574;45.328;9.598;2023-06-14T00:48:25;20.65;;;18.05;;
80272;SDS011;69574;45.328;9.598;2023-06-14T00:50:54;19.95;;;17.65;;
80272;SDS011;69574;45.328;9.598;2023-06-14T00:53:20;19.67;;;16.38;;
80272;SDS011;69574;45.328;9.598;2023-06-14T00:55:48;19.73;;;16.02;;
80272;SDS011;69574;45.328;9.598;2023-06-14T00:58:13;22.38;;;16.80;;
80272;SDS011;69574;45.328;9.598;2023-06-14T01:00:40;19.25;;;16.50;;
80272;SDS011;69574;45.328;9.598;2023-06-14T01:03:05;17.35;;;15.50;;
80272;SDS011;69574;45.328;9.598;2023-06-14T01:05:31;17.88;;;15.90;;
80272;SDS011;69574;45.328;9.598;2023-06-14T01:08:05;19.02;;;15.23;;
80272;SDS011;69574;45.328;9.598;2023-06-14T01:10:36;17.92;;;15.73;;
80272;SDS011;69574;45.328;9.598;2023-06-14T01:13:06;19.77;;;15.90;;
80272;SDS011;69574;45.328;9.598;2023-06-14T01:15:33;18.83;;;16.83;;
80272;SDS011;69574;45.328;9.598;2023-06-14T01:17:59;17.98;;;16.08;;
80272;SDS011;69574;45.328;9.598;2023-06-14T01:20:28;21.45;;;17.20;;
80272;SDS011;69574;45.328;9.598;2023-06-14T01:22:56;21.67;;;17.40;;
80272;SDS011;69574;45.328;9.598;2023-06-14T01:25:22;19.60;;;16.20;;
80272;SDS011;69574;45.328;9.598;2023-06-14T01:30:14;20.38;;;16.90;;
80272;SDS011;69574;45.328;9.598;2023-06-14T01:32:40;18.13;;;15.68;;
80272;SDS011;69574;45.328;9.598;2023-06-14T01:35:06;20.35;;;16.38;;
80272;SDS011;69574;45.328;9.598;2023-06-14T01:37:32;18.67;;;16.08;;
80272;SDS011;69574;45.328;9.598;2023-06-14T01:39:59;18.17;;;16.13;;
80272;SDS011;69574;45.328;9.598;2023-06-14T01:42:25;19.98;;;16.85;;
80272;SDS011;69574;45.328;9.598;2023-06-14T01:44:51;18.58;;;16.40;;
80272;SDS011;69574;45.328;9.598;2023-06-14T01:47:18;19.45;;;16.90;;
80272;SDS011;69574;45.328;9.598;2023-06-14T01:49:44;19.42;;;16.77;;
80272;SDS011;69574;45.328;9.598;2023-06-14T01:52:11;18.75;;;16.20;;
80272;SDS011;69574;45.328;9.598;2023-06-14T01:54:37;18.65;;;16.10;;
80272;SDS011;69574;45.328;9.598;2023-06-14T01:57:08;17.63;;;15.18;;
80272;SDS011;69574;45.328;9.598;2023-06-14T01:59:34;17.80;;;15.82;;
80272;SDS011;69574;45.328;9.598;2023-06-14T02:02:01;18.27;;;15.80;;
80272;SDS011;69574;45.328;9.598;2023-06-14T02:04:27;17.70;;;15.70;;
80272;SDS011;69574;45.328;9.598;2023-06-14T02:06:52;16.92;;;14.98;;
80272;SDS011;69574;45.328;9.598;2023-06-14T02:09:18;16.42;;;14.43;;
80272;SDS011;69574;45.328;9.598;2023-06-14T02:11:43;18.38;;;14.63;;
80272;SDS011;69574;45.328;9.598;2023-06-14T02:14:11;17.85;;;15.40;;
80272;SDS011;69574;45.328;9.598;2023-06-14T02:16:37;17.92;;;14.68;;
80272;SDS011;69574;45.328;9.598;2023-06-14T02:19:04;16.55;;;14.60;;
80272;SDS011;69574;45.328;9.598;2023-06-14T02:21:29;16.27;;;14.07;;
80272;SDS011;69574;45.328;9.598;2023-06-14T02:23:55;15.52;;;13.80;;
80272;SDS011;69574;45.328;9.598;2023-06-14T02:26:21;16.58;;;13.07;;
80272;SDS011;69574;45.328;9.598;2023-06-14T02:28:47;14.90;;;11.98;;
80272;SDS011;69574;45.328;9.598;2023-06-14T02:31:15;12.82;;;11.00;;
80272;SDS011;69574;45.328;9.598;2023-06-14T02:33:41;12.73;;;10.73;;
80272;SDS011;69574;45.328;9.598;2023-06-14T02:36:07;12.40;;;10.38;;
80272;SDS011;69574;45.328;9.598;2023-06-14T02:38:32;11.73;;;8.90;;
80272;SDS011;69574;45.328;9.598;2023-06-14T02:40:58;12.25;;;9.60;;
80272;SDS011;69574;45.328;9.598;2023-06-14T02:43:26;11.23;;;9.70;;
80272;SDS011;69574;45.328;9.598;2023-06-14T02:45:52;10.65;;;9.20;;
80272;SDS011;69574;45.328;9.598;2023-06-14T02:48:19;10.20;;;8.75;;
80272;SDS011;69574;45.328;9.598;2023-06-14T02:50:45;10.25;;;8.75;;
80272;SDS011;69574;45.328;9.598;2023-06-14T02:53:10;10.10;;;8.80;;
80272;SDS011;69574;45.328;9.598;2023-06-14T02:55:37;11.68;;;8.13;;
80272;SDS011;69574;45.328;9.598;2023-06-14T02:58:05;9.25;;;7.45;;
80272;SDS011;69574;45.328;9.598;2023-06-14T03:00:30;9.55;;;7.20;;
80272;SDS011;69574;45.328;9.598;2023-06-14T03:02:56;8.80;;;6.93;;
80272;SDS011;69574;45.328;9.598;2023-06-14T03:05:23;8.52;;;7.10;;
80272;SDS011;69574;45.328;9.598;2023-06-14T03:07:49;8.32;;;7.03;;
80272;SDS011;69574;45.328;9.598;2023-06-14T03:10:15;7.88;;;6.50;;
80272;SDS011;69574;45.328;9.598;2023-06-14T03:12:41;8.50;;;6.65;;
80272;SDS011;69574;45.328;9.598;2023-06-14T03:15:07;7.68;;;6.38;;
80272;SDS011;69574;45.328;9.598;2023-06-14T03:17:34;8.00;;;6.82;;
80272;SDS011;69574;45.328;9.598;2023-06-14T03:20:00;8.98;;;6.38;;
80272;SDS011;69574;45.328;9.598;2023-06-14T03:22:27;8.13;;;6.15;;
80272;SDS011;69574;45.328;9.598;2023-06-14T03:24:53;8.18;;;6.60;;
80272;SDS011;69574;45.328;9.598;2023-06-14T03:29:45;7.77;;;6.57;;
80272;SDS011;69574;45.328;9.598;2023-06-14T03:32:11;9.07;;;6.35;;
80272;SDS011;69574;45.328;9.598;2023-06-14T03:34:37;7.80;;;6.20;;
80272;SDS011;69574;45.328;9.598;2023-06-14T03:37:04;7.20;;;5.57;;
80272;SDS011;69574;45.328;9.598;2023-06-14T03:39:31;7.00;;;5.82;;
80272;SDS011;69574;45.328;9.598;2023-06-14T03:41:57;9.32;;;6.45;;
80272;SDS011;69574;45.328;9.598;2023-06-14T03:44:22;8.60;;;6.00;;
80272;SDS011;69574;45.328;9.598;2023-06-14T03:46:48;8.75;;;6.20;;
80272;SDS011;69574;45.328;9.598;2023-06-14T03:49:14;7.63;;;6.22;;
80272;SDS011;69574;45.328;9.598;2023-06-14T03:51:41;7.65;;;5.72;;
80272;SDS011;69574;45.328;9.598;2023-06-14T03:54:07;7.82;;;6.10;;
80272;SDS011;69574;45.328;9.598;2023-06-14T03:56:34;9.35;;;6.10;;
80272;SDS011;69574;45.328;9.598;2023-06-14T03:59:01;7.68;;;5.93;;
80272;SDS011;69574;45.328;9.598;2023-06-14T04:01:27;7.43;;;5.25;;
80272;SDS011;69574;45.328;9.598;2023-06-14T04:03:55;7.10;;;5.22;;
80272;SDS011;69574;45.328;9.598;2023-06-14T04:06:21;7.03;;;5.22;;
80272;SDS011;69574;45.328;9.598;2023-06-14T04:11:14;8.90;;;5.15;;
80272;SDS011;69574;45.328;9.598;2023-06-14T04:13:41;8.30;;;5.47;;
80272;SDS011;69574;45.328;9.598;2023-06-14T04:16:07;8.82;;;5.32;;
80272;SDS011;69574;45.328;9.598;2023-06-14T04:18:33;8.00;;;5.53;;
80272;SDS011;69574;45.328;9.598;2023-06-14T04:20:58;7.13;;;5.10;;
80272;SDS011;69574;45.328;9.598;2023-06-14T04:23:25;6.85;;;5.30;;
80272;SDS011;69574;45.328;9.598;2023-06-14T04:25:53;6.05;;;4.65;;
80272;SDS011;69574;45.328;9.598;2023-06-14T04:28:19;8.80;;;4.80;;
80272;SDS011;69574;45.328;9.598;2023-06-14T04:30:47;7.88;;;4.90;;
80272;SDS011;69574;45.328;9.598;2023-06-14T04:33:12;6.45;;;4.90;;
80272;SDS011;69574;45.328;9.598;2023-06-14T04:35:38;8.25;;;5.00;;
80272;SDS011;69574;45.328;9.598;2023-06-14T04:38:05;7.13;;;5.13;;
80272;SDS011;69574;45.328;9.598;2023-06-14T04:40:34;9.50;;;5.32;;
80272;SDS011;69574;45.328;9.598;2023-06-14T04:43:01;7.38;;;4.95;;
80272;SDS011;69574;45.328;9.598;2023-06-14T04:45:30;13.77;;;5.50;;
80272;SDS011;69574;45.328;9.598;2023-06-14T04:47:59;6.78;;;5.00;;
80272;SDS011;69574;45.328;9.598;2023-06-14T04:50:25;8.63;;;5.03;;
80272;SDS011;69574;45.328;9.598;2023-06-14T04:52:51;7.70;;;4.80;;
80272;SDS011;69574;45.328;9.598;2023-06-14T04:55:16;9.15;;;4.70;;
80272;SDS011;69574;45.328;9.598;2023-06-14T04:57:42;6.30;;;4.40;;
80272;SDS011;69574;45.328;9.598;2023-06-14T05:00:08;6.72;;;3.90;;
80272;SDS011;69574;45.328;9.598;2023-06-14T05:02:36;6.40;;;4.32;;
80272;SDS011;69574;45.328;9.598;2023-06-14T05:05:04;7.15;;;4.25;;
80272;SDS011;69574;45.328;9.598;2023-06-14T05:07:32;5.63;;;4.13;;
80272;SDS011;69574;45.328;9.598;2023-06-14T05:09:59;6.57;;;4.38;;
80272;SDS011;69574;45.328;9.598;2023-06-14T05:12:24;6.45;;;4.10;;
80272;SDS011;69574;45.328;9.598;2023-06-14T05:14:50;5.55;;;4.10;;
80272;SDS011;69574;45.328;9.598;2023-06-14T05:17:16;6.93;;;4.40;;
80272;SDS011;69574;45.328;9.598;2023-06-14T05:19:42;9.25;;;4.53;;
80272;SDS011;69574;45.328;9.598;2023-06-14T05:22:09;7.40;;;4.85;;
80272;SDS011;69574;45.328;9.598;2023-06-14T05:24:35;7.18;;;4.22;;
80272;SDS011;69574;45.328;9.598;2023-06-14T05:27:00;6.68;;;4.43;;
80272;SDS011;69574;45.328;9.598;2023-06-14T05:29:26;7.47;;;4.38;;
80272;SDS011;69574;45.328;9.598;2023-06-14T05:31:52;6.47;;;4.32;;
80272;SDS011;69574;45.328;9.598;2023-06-14T05:34:18;7.72;;;4.38;;
80272;SDS011;69574;45.328;9.598;2023-06-14T05:36:44;8.20;;;4.32;;
80272;SDS011;69574;45.328;9.598;2023-06-14T05:39:11;6.28;;;4.07;;
80272;SDS011;69574;45.328;9.598;2023-06-14T05:41:37;7.65;;;4.72;;
80272;SDS011;69574;45.328;9.598;2023-06-14T05:44:02;11.07;;;4.95;;
80272;SDS011;69574;45.328;9.598;2023-06-14T05:46:28;5.53;;;4.25;;
80272;SDS011;69574;45.328;9.598;2023-06-14T05:48:54;5.65;;;3.90;;
80272;SDS011;69574;45.328;9.598;2023-06-14T05:51:20;10.65;;;4.60;;
80272;SDS011;69574;45.328;9.598;2023-06-14T05:53:46;7.30;;;4.70;;
80272;SDS011;69574;45.328;9.598;2023-06-14T05:56:13;10.23;;;4.97;;
80272;SDS011;69574;45.328;9.598;2023-06-14T05:58:39;6.82;;;4.82;;
80272;SDS011;69574;45.328;9.598;2023-06-14T06:01:05;9.30;;;4.93;;
80272;SDS011;69574;45.328;9.598;2023-06-14T06:03:31;7.82;;;5.18;;
80272;SDS011;69574;45.328;9.598;2023-06-14T06:05:56;10.85;;;5.22;;
80272;SDS011;69574;45.328;9.598;2023-06-14T06:08:22;10.07;;;4.97;;
80272;SDS011;69574;45.328;9.598;2023-06-14T06:10:48;7.68;;;4.93;;
80272;SDS011;69574;45.328;9.598;2023-06-14T06:13:15;12.82;;;5.78;;
80272;SDS011;69574;45.328;9.598;2023-06-14T06:15:41;21.70;;;5.65;;
80272;SDS011;69574;45.328;9.598;2023-06-14T06:18:06;9.07;;;5.45;;
80272;SDS011;69574;45.328;9.598;2023-06-14T06:20:32;9.68;;;5.35;;
80272;SDS011;69574;45.328;9.598;2023-06-14T06:22:58;7.70;;;5.47;;
80272;SDS011;69574;45.328;9.598;2023-06-14T06:25:24;8.85;;;5.40;;
80272;SDS011;69574;45.328;9.598;2023-06-14T06:27:51;7.38;;;5.28;;
80272;SDS011;69574;45.328;9.598;2023-06-14T06:30:18;8.18;;;5.65;;
80272;SDS011;69574;45.328;9.598;2023-06-14T06:32:44;9.82;;;6.38;;
80272;SDS011;69574;45.328;9.598;2023-06-14T06:35:10;13.65;;;6.90;;
80272;SDS011;69574;45.328;9.598;2023-06-14T06:40:01;8.37;;;6.77;;
80272;SDS011;69574;45.328;9.598;2023-06-14T06:42:28;10.52;;;7.65;;
80272;SDS011;69574;45.328;9.598;2023-06-14T06:44:54;9.68;;;7.05;;
80272;SDS011;69574;45.328;9.598;2023-06-14T06:47:21;15.23;;;8.02;;
80272;SDS011;69574;45.328;9.598;2023-06-14T06:49:47;14.48;;;8.43;;
80272;SDS011;69574;45.328;9.598;2023-06-14T06:52:13;11.13;;;7.45;;
80272;SDS011;69574;45.328;9.598;2023-06-14T06:54:38;11.13;;;7.60;;
80272;SDS011;69574;45.328;9.598;2023-06-14T06:57:04;13.20;;;9.18;;
80272;SDS011;69574;45.328;9.598;2023-06-14T06:59:31;14.45;;;9.85;;
80272;SDS011;69574;45.328;9.598;2023-06-14T07:01:57;12.07;;;9.18;;
80272;SDS011;69574;45.328;9.598;2023-06-14T07:04:24;11.57;;;10.32;;
80272;SDS011;69574;45.328;9.598;2023-06-14T07:06:50;13.93;;;9.73;;
80272;SDS011;69574;45.328;9.598;2023-06-14T07:09:15;16.17;;;10.90;;
80272;SDS011;69574;45.328;9.598;2023-06-14T07:11:42;15.23;;;10.45;;
80272;SDS011;69574;45.328;9.598;2023-06-14T07:14:07;14.35;;;10.95;;
80272;SDS011;69574;45.328;9.598;2023-06-14T07:16:33;14.60;;;11.57;;
80272;SDS011;69574;45.328;9.598;2023-06-14T07:18:59;16.98;;;12.80;;
80272;SDS011;69574;45.328;9.598;2023-06-14T07:21:27;13.95;;;11.88;;
80272;SDS011;69574;45.328;9.598;2023-06-14T07:23:53;16.77;;;12.48;;
80272;SDS011;69574;45.328;9.598;2023-06-14T07:26:18;17.52;;;13.68;;
80272;SDS011;69574;45.328;9.598;2023-06-14T07:28:44;16.00;;;13.00;;
80272;SDS011;69574;45.328;9.598;2023-06-14T07:31:10;17.40;;;13.65;;
80272;SDS011;69574;45.328;9.598;2023-06-14T07:33:35;17.13;;;13.10;;
80272;SDS011;69574;45.328;9.598;2023-06-14T07:36:01;18.88;;;13.70;;
80272;SDS011;69574;45.328;9.598;2023-06-14T07:38:28;18.27;;;14.82;;
80272;SDS011;69574;45.328;9.598;2023-06-14T07:40:54;20.63;;;15.60;;
80272;SDS011;69574;45.328;9.598;2023-06-14T07:43:19;19.27;;;15.23;;
80272;SDS011;69574;45.328;9.598;2023-06-14T07:45:45;20.23;;;15.85;;
80272;SDS011;69574;45.328;9.598;2023-06-14T07:48:11;19.33;;;15.55;;
80272;SDS011;69574;45.328;9.598;2023-06-14T07:50:36;19.80;;;16.27;;
80272;SDS011;69574;45.328;9.598;2023-06-14T07:53:02;19.48;;;16.13;;
80272;SDS011;69574;45.328;9.598;2023-06-14T07:55:29;19.05;;;16.23;;
80272;SDS011;69574;45.328;9.598;2023-06-14T07:57:56;19.90;;;16.45;;
80272;SDS011;69574;45.328;9.598;2023-06-14T08:00:21;21.23;;;16.92;;
80272;SDS011;69574;45.328;9.598;2023-06-14T08:02:47;23.30;;;17.42;;
80272;SDS011;69574;45.328;9.598;2023-06-14T08:05:13;19.92;;;17.42;;
80272;SDS011;69574;45.328;9.598;2023-06-14T08:07:38;21.27;;;17.95;;
80272;SDS011;69574;45.328;9.598;2023-06-14T08:10:04;23.38;;;19.02;;
80272;SDS011;69574;45.328;9.598;2023-06-14T08:12:34;20.45;;;17.05;;
80272;SDS011;69574;45.328;9.598;2023-06-14T08:15:00;20.15;;;16.20;;
80272;SDS011;69574;45.328;9.598;2023-06-14T08:17:26;22.25;;;16.52;;
80272;SDS011;69574;45.328;9.598;2023-06-14T08:19:51;19.73;;;16.83;;
80272;SDS011;69574;45.328;9.598;2023-06-14T08:22:17;20.38;;;16.88;;
80272;SDS011;69574;45.328;9.598;2023-06-14T08:24:43;18.75;;;16.75;;
80272;SDS011;69574;45.328;9.598;2023-06-14T08:27:09;19.60;;;16.10;;
80272;SDS011;69574;45.328;9.598;2023-06-14T08:29:36;31.25;;;18.38;;
80272;SDS011;69574;45.328;9.598;2023-06-14T08:32:05;21.15;;;16.70;;
80272;SDS011;69574;45.328;9.598;2023-06-14T08:34:31;20.67;;;17.13;;
80272;SDS011;69574;45.328;9.598;2023-06-14T08:36:56;21.55;;;16.70;;
80272;SDS011;69574;45.328;9.598;2023-06-14T08:39:22;18.42;;;16.00;;
80272;SDS011;69574;45.328;9.598;2023-06-14T08:41:48;20.00;;;16.63;;
80272;SDS011;69574;45.328;9.598;2023-06-14T08:44:14;18.83;;;16.27;;
80272;SDS011;69574;45.328;9.598;2023-06-14T08:46:42;19.95;;;16.35;;
80272;SDS011;69574;45.328;9.598;2023-06-14T08:49:07;20.20;;;16.55;;
80272;SDS011;69574;45.328;9.598;2023-06-14T08:51:33;19.90;;;17.27;;
80272;SDS011;69574;45.328;9.598;2023-06-14T08:54:02;19.98;;;16.67;;
80272;SDS011;69574;45.328;9.598;2023-06-14T08:56:29;19.42;;;15.68;;
80272;SDS011;69574;45.328;9.598;2023-06-14T08:58:56;18.52;;;16.17;;
80272;SDS011;69574;45.328;9.598;2023-06-14T09:01:23;19.52;;;16.08;;
80272;SDS011;69574;45.328;9.598;2023-06-14T09:03:50;19.33;;;16.20;;
80272;SDS011;69574;45.328;9.598;2023-06-14T09:06:17;19.90;;;16.17;;
80272;SDS011;69574;45.328;9.598;2023-06-14T09:08:44;21.10;;;16.15;;
80272;SDS011;69574;45.328;9.598;2023-06-14T09:11:10;18.45;;;16.42;;
80272;SDS011;69574;45.328;9.598;2023-06-14T09:13:36;17.60;;;14.65;;
80272;SDS011;69574;45.328;9.598;2023-06-14T09:16:02;17.40;;;13.55;;
80272;SDS011;69574;45.328;9.598;2023-06-14T09:18:33;20.58;;;15.27;;
80272;SDS011;69574;45.328;9.598;2023-06-14T09:21:01;15.52;;;13.57;;
80272;SDS011;69574;45.328;9.598;2023-06-14T09:23:26;15.88;;;13.48;;
80272;SDS011;69574;45.328;9.598;2023-06-14T09:25:52;17.85;;;12.93;;
80272;SDS011;69574;45.328;9.598;2023-06-14T09:28:18;13.20;;;11.07;;
80272;SDS011;69574;45.328;9.598;2023-06-14T09:30:45;15.60;;;12.05;;
80272;SDS011;69574;45.328;9.598;2023-06-14T09:33:11;16.00;;;12.35;;
80272;SDS011;69574;45.328;9.598;2023-06-14T09:35:41;15.15;;;11.85;;
80272;SDS011;69574;45.328;9.598;2023-06-14T09:38:09;14.73;;;12.15;;
80272;SDS011;69574;45.328;9.598;2023-06-14T09:40:35;15.18;;;12.63;;
80272;SDS011;69574;45.328;9.598;2023-06-14T09:43:04;22.77;;;12.30;;
80272;SDS011;69574;45.328;9.598;2023-06-14T09:45:31;15.15;;;12.30;;
80272;SDS011;69574;45.328;9.598;2023-06-14T09:47:58;14.88;;;11.25;;
80272;SDS011;69574;45.328;9.598;2023-06-14T09:50:23;14.63;;;11.95;;
80272;SDS011;69574;45.328;9.598;2023-06-14T09:52:49;13.90;;;11.10;;
80272;SDS011;69574;45.328;9.598;2023-06-14T09:55:18;15.95;;;11.30;;
80272;SDS011;69574;45.328;9.598;2023-06-14T09:57:44;13.50;;;10.48;;
80272;SDS011;69574;45.328;9.598;2023-06-14T10:00:11;12.65;;;10.30;;
80272;SDS011;69574;45.328;9.598;2023-06-14T10:02:38;13.13;;;9.20;;
80272;SDS011;69574;45.328;9.598;2023-06-14T10:05:05;13.48;;;10.43;;
80272;SDS011;69574;45.328;9.598;2023-06-14T10:07:35;13.68;;;10.05;;
80272;SDS011;69574;45.328;9.598;2023-06-14T10:10:04;11.38;;;10.18;;
80272;SDS011;69574;45.328;9.598;2023-06-14T10:12:31;16.63;;;10.85;;
80272;SDS011;69574;45.328;9.598;2023-06-14T10:14:57;16.70;;;11.48;;
80272;SDS011;69574;45.328;9.598;2023-06-14T10:19:48;12.82;;;11.02;;
80272;SDS011;69574;45.328;9.598;2023-06-14T10:22:19;12.63;;;11.27;;
80272;SDS011;69574;45.328;9.598;2023-06-14T10:24:48;14.63;;;11.68;;
80272;SDS011;69574;45.328;9.598;2023-06-14T10:27:15;14.55;;;11.52;;
80272;SDS011;69574;45.328;9.598;2023-06-14T10:32:33;13.73;;;11.85;;
80272;SDS011;69574;45.328;9.598;2023-06-14T10:34:59;14.73;;;11.95;;
80272;SDS011;69574;45.328;9.598;2023-06-14T10:37:25;14.60;;;12.55;;
80272;SDS011;69574;45.328;9.598;2023-06-14T10:39:51;13.68;;;11.60;;
80272;SDS011;69574;45.328;9.598;2023-06-14T10:42:16;12.45;;;11.13;;
80272;SDS011;69574;45.328;9.598;2023-06-14T10:44:43;15.95;;;11.68;;
80272;SDS011;69574;45.328;9.598;2023-06-14T10:47:09;12.38;;;10.43;;
80272;SDS011;69574;45.328;9.598;2023-06-14T10:49:38;14.85;;;11.90;;
80272;SDS011;69574;45.328;9.598;2023-06-14T10:52:10;13.35;;;11.52;;
80272;SDS011;69574;45.328;9.598;2023-06-14T10:54:55;12.90;;;11.13;;
80272;SDS011;69574;45.328;9.598;2023-06-14T10:57:21;13.15;;;11.20;;
80272;SDS011;69574;45.328;9.598;2023-06-14T10:59:47;13.18;;;11.05;;
80272;SDS011;69574;45.328;9.598;2023-06-14T11:02:18;12.30;;;10.20;;
80272;SDS011;69574;45.328;9.598;2023-06-14T11:04:54;11.98;;;10.13;;
80272;SDS011;69574;45.328;9.598;2023-06-14T11:07:27;10.70;;;9.13;;
80272;SDS011;69574;45.328;9.598;2023-06-14T11:10:00;11.90;;;10.02;;
80272;SDS011;69574;45.328;9.598;2023-06-14T11:12:28;12.02;;;9.52;;
80272;SDS011;69574;45.328;9.598;2023-06-14T11:14:57;13.60;;;9.38;;
80272;SDS011;69574;45.328;9.598;2023-06-14T11:17:22;11.75;;;9.35;;
80272;SDS011;69574;45.328;9.598;2023-06-14T11:19:48;14.10;;;9.50;;
80272;SDS011;69574;45.328;9.598;2023-06-14T11:22:16;12.85;;;10.13;;
80272;SDS011;69574;45.328;9.598;2023-06-14T11:24:42;11.43;;;10.10;;
80272;SDS011;69574;45.328;9.598;2023-06-14T11:27:08;11.13;;;9.35;;
80272;SDS011;69574;45.328;9.598;2023-06-14T11:29:34;17.00;;;9.85;;
80272;SDS011;69574;45.328;9.598;2023-06-14T11:32:00;9.93;;;8.23;;
80272;SDS011;69574;45.328;9.598;2023-06-14T11:34:25;12.95;;;9.45;;
80272;SDS011;69574;45.328;9.598;2023-06-14T11:36:51;12.82;;;9.32;;
80272;SDS011;69574;45.328;9.598;2023-06-14T11:39:23;10.20;;;7.95;;
80272;SDS011;69574;45.328;9.598;2023-06-14T11:41:49;11.98;;;9.10;;
80272;SDS011;69574;45.328;9.598;2023-06-14T11:44:15;11.85;;;9.13;;
80272;SDS011;69574;45.328;9.598;2023-06-14T11:46:40;12.20;;;9.38;;
80272;SDS011;69574;45.328;9.598;2023-06-14T11:49:06;11.45;;;9.05;;
80272;SDS011;69574;45.328;9.598;2023-06-14T11:51:32;27.50;;;9.68;;
80272;SDS011;69574;45.328;9.598;2023-06-14T11:53:58;11.45;;;9.77;;
80272;SDS011;69574;45.328;9.598;2023-06-14T11:56:25;12.02;;;9.45;;
80272;SDS011;69574;45.328;9.598;2023-06-14T11:58:52;10.65;;;8.90;;
80272;SDS011;69574;45.328;9.598;2023-06-14T12:01:18;12.80;;;10.10;;
80272;SDS011;69574;45.328;9.598;2023-06-14T12:03:49;10.88;;;9.23;;
80272;SDS011;69574;45.328;9.598;2023-06-14T12:06:15;10.73;;;9.30;;
80272;SDS011;69574;45.328;9.598;2023-06-14T12:08:43;10.18;;;8.38;;
80272;SDS011;69574;45.328;9.598;2023-06-14T12:11:11;11.18;;;7.47;;
80272;SDS011;69574;45.328;9.598;2023-06-14T12:13:39;7.15;;;5.72;;
80272;SDS011;69574;45.328;9.598;2023-06-14T12:16:08;6.90;;;5.68;;
80272;SDS011;69574;45.328;9.598;2023-06-14T12:18:34;7.68;;;5.47;;
80272;SDS011;69574;45.328;9.598;2023-06-14T12:23:40;8.23;;;5.53;;
80272;SDS011;69574;45.328;9.598;2023-06-14T12:26:07;10.60;;;5.82;;
80272;SDS011;69574;45.328;9.598;2023-06-14T12:28:33;7.28;;;5.15;;
80272;SDS011;69574;45.328;9.598;2023-06-14T12:31:00;7.35;;;5.30;;
80272;SDS011;69574;45.328;9.598;2023-06-14T12:33:25;7.45;;;4.60;;
80272;SDS011;69574;45.328;9.598;2023-06-14T12:35:53;7.43;;;6.03;;
80272;SDS011;69574;45.328;9.598;2023-06-14T12:38:21;8.98;;;5.80;;
80272;SDS011;69574;45.328;9.598;2023-06-14T12:40:49;8.90;;;5.78;;
80272;SDS011;69574;45.328;9.598;2023-06-14T12:43:15;20.70;;;6.10;;
80272;SDS011;69574;45.328;9.598;2023-06-14T12:45:41;12.02;;;5.55;;
80272;SDS011;69574;45.328;9.598;2023-06-14T12:48:08;9.32;;;3.95;;
80272;SDS011;69574;45.328;9.598;2023-06-14T12:50:34;8.60;;;3.97;;
80272;SDS011;69574;45.328;9.598;2023-06-14T12:53:00;12.48;;;4.35;;
80272;SDS011;69574;45.328;9.598;2023-06-14T12:55:25;9.23;;;3.88;;
80272;SDS011;69574;45.328;9.598;2023-06-14T12:57:51;11.10;;;4.13;;
80272;SDS011;69574;45.328;9.598;2023-06-14T13:00:17;9.90;;;3.88;;
80272;SDS011;69574;45.328;9.598;2023-06-14T13:02:43;8.45;;;3.67;;
80272;SDS011;69574;45.328;9.598;2023-06-14T13:05:10;43.72;;;6.05;;
80272;SDS011;69574;45.328;9.598;2023-06-14T13:07:36;23.48;;;4.20;;
80272;SDS011;69574;45.328;9.598;2023-06-14T13:10:02;5.95;;;3.47;;
80272;SDS011;69574;45.328;9.598;2023-06-14T13:12:31;61.85;;;9.50;;
80272;SDS011;69574;45.328;9.598;2023-06-14T13:14:56;24.58;;;5.43;;
80272;SDS011;69574;45.328;9.598;2023-06-14T13:17:22;23.17;;;4.65;;
80272;SDS011;69574;45.328;9.598;2023-06-14T13:19:48;58.67;;;7.60;;
80272;SDS011;69574;45.328;9.598;2023-06-14T13:22:15;15.27;;;4.32;;
80272;SDS011;69574;45.328;9.598;2023-06-14T13:24:41;10.75;;;4.28;;
80272;SDS011;69574;45.328;9.598;2023-06-14T13:27:06;11.90;;;4.50;;
80272;SDS011;69574;45.328;9.598;2023-06-14T13:29:32;21.30;;;4.72;;
80272;SDS011;69574;45.328;9.598;2023-06-14T13:32:00;10.35;;;3.70;;
80272;SDS011;69574;45.328;9.598;2023-06-14T13:34:26;7.82;;;3.40;;
80272;SDS011;69574;45.328;9.598;2023-06-14T13:36:52;40.47;;;5.88;;
80272;SDS011;69574;45.328;9.598;2023-06-14T13:39:19;23.40;;;4.60;;
80272;SDS011;69574;45.328;9.598;2023-06-14T13:41:45;15.73;;;4.15;;
80272;SDS011;69574;45.328;9.598;2023-06-14T13:44:11;25.88;;;4.90;;
80272;SDS011;69574;45.328;9.598;2023-06-14T13:46:39;10.40;;;3.60;;
80272;SDS011;69574;45.328;9.598;2023-06-14T13:49:11;21.65;;;4.53;;
80272;SDS011;69574;45.328;9.598;2023-06-14T13:51:38;52.47;;;6.95;;
80272;SDS011;69574;45.328;9.598;2023-06-14T13:54:05;18.55;;;4.53;;
80272;SDS011;69574;45.328;9.598;2023-06-14T13:58:57;6.13;;;3.87;;
80272;SDS011;69574;45.328;9.598;2023-06-14T14:01:23;11.65;;;4.65;;
80272;SDS011;69574;45.328;9.598;2023-06-14T14:03:51;77.22;;;8.65;;
80272;SDS011;69574;45.328;9.598;2023-06-14T14:06:16;63.35;;;8.80;;
80272;SDS011;69574;45.328;9.598;2023-06-14T14:08:42;27.50;;;6.00;;
80272;SDS011;69574;45.328;9.598;2023-06-14T14:11:09;34.35;;;6.28;;
80272;SDS011;69574;45.328;9.598;2023-06-14T14:16:03;77.60;;;8.27;;
80272;SDS011;69574;45.328;9.598;2023-06-14T14:18:29;14.80;;;4.90;;
80272;SDS011;69574;45.328;9.598;2023-06-14T14:23:21;8.20;;;4.97;;
80272;SDS011;69574;45.328;9.598;2023-06-14T14:25:47;10.75;;;4.90;;
80272;SDS011;69574;45.328;9.598;2023-06-14T14:28:12;8.43;;;4.78;;
80272;SDS011;69574;45.328;9.598;2023-06-14T14:30:41;5.63;;;4.75;;
80272;SDS011;69574;45.328;9.598;2023-06-14T14:33:08;15.38;;;5.43;;
80272;SDS011;69574;45.328;9.598;2023-06-14T14:35:34;18.90;;;6.10;;
80272;SDS011;69574;45.328;9.598;2023-06-14T14:37:59;13.27;;;5.45;;
80272;SDS011;69574;45.328;9.598;2023-06-14T14:40:25;11.30;;;5.40;;
80272;SDS011;69574;45.328;9.598;2023-06-14T14:42:51;11.68;;;5.43;;
80272;SDS011;69574;45.328;9.598;2023-06-14T14:45:17;8.98;;;5.22;;
80272;SDS011;69574;45.328;9.598;2023-06-14T14:47:43;19.20;;;6.75;;
80272;SDS011;69574;45.328;9.598;2023-06-14T14:50:10;8.25;;;5.68;;
80272;SDS011;69574;45.328;9.598;2023-06-14T14:52:35;11.70;;;6.40;;
80272;SDS011;69574;45.328;9.598;2023-06-14T14:55:01;13.18;;;5.30;;